sensor_id;sensor_type;location;lat;lon;timestamp;P1;durP1;ratioP1;P2;durP2;ratioP2
7142;SDS011;3613;48.902;9.204;2023-08-12T00:01:39;8.27;;;7.40;;
7142;SDS011;3613;48.902;9.204;2023-08-12T00:04:05;9.10;;;7.67;;
7142;SDS011;3613;48.902;9.204;2023-08-12T00:06:31;9.30;;;7.57;;
7142;SDS011;3613;48.902;9.204;2023-08-12T00:08:57;8.60;;;7.70;;
7142;SDS011;3613;48.902;9.204;2023-08-12T00:11:30;9.30;;;7.63;;
7142;SDS011;3613;48.902;9.204;2023-08-12T00:13:56;11.47;;;7.47;;
7142;SDS011;3613;48.902;9.204;2023-08-12T00:16:27;9.47;;;7.73;;
7142;SDS011;3613;48.902;9.204;2023-08-12T00:18:53;8.67;;;6.87;;
7142;SDS011;3613;48.902;9.204;2023-08-12T00:21:19;9.27;;;7.20;;
7142;SDS011;3613;48.902;9.204;2023-08-12T00:23:45;9.47;;;7.50;;
7142;SDS011;3613;48.902;9.204;2023-08-12T00:26:17;10.00;;;7.63;;
7142;SDS011;3613;48.902;9.204;2023-08-12T00:28:42;13.33;;;8.33;;
7142;SDS011;3613;48.902;9.204;2023-08-12T00:31:08;9.63;;;7.80;;
7142;SDS011;3613;48.902;9.204;2023-08-12T00:33:34;9.10;;;8.03;;
7142;SDS011;3613;48.902;9.204;2023-08-12T00:36:02;9.27;;;8.00;;
7142;SDS011;3613;48.902;9.204;2023-08-12T00:38:28;11.57;;;8.40;;
7142;SDS011;3613;48.902;9.204;2023-08-12T00:40:54;8.77;;;7.87;;
7142;SDS011;3613;48.902;9.204;2023-08-12T00:43:19;11.23;;;8.30;;
7142;SDS011;3613;48.902;9.204;2023-08-12T00:45:46;9.63;;;8.00;;
7142;SDS011;3613;48.902;9.204;2023-08-12T00:48:17;9.97;;;8.37;;
7142;SDS011;3613;48.902;9.204;2023-08-12T00:50:43;8.60;;;7.70;;
7142;SDS011;3613;48.902;9.204;2023-08-12T00:53:12;10.20;;;7.10;;
7142;SDS011;3613;48.902;9.204;2023-08-12T00:55:39;8.20;;;7.27;;
7142;SDS011;3613;48.902;9.204;2023-08-12T00:58:05;9.57;;;7.43;;
7142;SDS011;3613;48.902;9.204;2023-08-12T01:00:33;10.20;;;7.73;;
7142;SDS011;3613;48.902;9.204;2023-08-12T01:02:58;11.10;;;7.70;;
7142;SDS011;3613;48.902;9.204;2023-08-12T01:05:33;9.60;;;7.17;;
7142;SDS011;3613;48.902;9.204;2023-08-12T01:08:01;10.17;;;8.37;;
7142;SDS011;3613;48.902;9.204;2023-08-12T01:10:28;10.40;;;7.07;;
7142;SDS011;3613;48.902;9.204;2023-08-12T01:15:44;11.30;;;8.30;;
7142;SDS011;3613;48.902;9.204;2023-08-12T01:18:12;9.10;;;7.60;;
7142;SDS011;3613;48.902;9.204;2023-08-12T01:20:40;8.63;;;7.20;;
7142;SDS011;3613;48.902;9.204;2023-08-12T01:25:39;8.83;;;7.20;;
7142;SDS011;3613;48.902;9.204;2023-08-12T01:28:10;9.27;;;7.27;;
7142;SDS011;3613;48.902;9.204;2023-08-12T01:30:36;9.57;;;7.07;;
7142;SDS011;3613;48.902;9.204;2023-08-12T01:33:14;8.80;;;7.80;;
7142;SDS011;3613;48.902;9.204;2023-08-12T01:35:51;8.10;;;7.03;;
7142;SDS011;3613;48.902;9.204;2023-08-12T01:38:29;10.27;;;7.60;;
7142;SDS011;3613;48.902;9.204;2023-08-12T01:41:03;8.97;;;7.53;;
7142;SDS011;3613;48.902;9.204;2023-08-12T01:43:29;8.43;;;7.03;;
7142;SDS011;3613;48.902;9.204;2023-08-12T01:45:55;8.07;;;7.07;;
7142;SDS011;3613;48.902;9.204;2023-08-12T01:48:22;8.27;;;7.20;;
7142;SDS011;3613;48.902;9.204;2023-08-12T01:50:48;8.77;;;7.73;;
7142;SDS011;3613;48.902;9.204;2023-08-12T01:53:14;8.60;;;7.70;;
7142;SDS011;3613;48.902;9.204;2023-08-12T01:55:43;9.37;;;8.20;;
7142;SDS011;3613;48.902;9.204;2023-08-12T01:58:12;10.43;;;7.83;;
7142;SDS011;3613;48.902;9.204;2023-08-12T02:00:38;9.97;;;8.03;;
7142;SDS011;3613;48.902;9.204;2023-08-12T02:03:07;9.07;;;7.90;;
7142;SDS011;3613;48.902;9.204;2023-08-12T02:05:42;9.87;;;7.77;;
7142;SDS011;3613;48.902;9.204;2023-08-12T02:08:08;13.30;;;8.70;;
7142;SDS011;3613;48.902;9.204;2023-08-12T02:10:39;8.40;;;7.43;;
7142;SDS011;3613;48.902;9.204;2023-08-12T02:13:07;8.87;;;7.73;;
7142;SDS011;3613;48.902;9.204;2023-08-12T02:15:33;11.33;;;7.90;;
7142;SDS011;3613;48.902;9.204;2023-08-12T02:17:58;9.60;;;8.40;;
7142;SDS011;3613;48.902;9.204;2023-08-12T02:20:24;11.00;;;8.03;;
7142;SDS011;3613;48.902;9.204;2023-08-12T02:22:50;10.60;;;8.57;;
7142;SDS011;3613;48.902;9.204;2023-08-12T02:25:16;13.80;;;8.73;;
7142;SDS011;3613;48.902;9.204;2023-08-12T02:27:44;10.93;;;8.27;;
7142;SDS011;3613;48.902;9.204;2023-08-12T02:30:13;10.30;;;7.90;;
7142;SDS011;3613;48.902;9.204;2023-08-12T02:32:40;9.60;;;7.17;;
7142;SDS011;3613;48.902;9.204;2023-08-12T02:35:10;10.33;;;7.80;;
7142;SDS011;3613;48.902;9.204;2023-08-12T02:37:36;8.03;;;7.20;;
7142;SDS011;3613;48.902;9.204;2023-08-12T02:40:03;11.00;;;7.53;;
7142;SDS011;3613;48.902;9.204;2023-08-12T02:42:30;9.83;;;7.53;;
7142;SDS011;3613;48.902;9.204;2023-08-12T02:44:58;9.97;;;7.23;;
7142;SDS011;3613;48.902;9.204;2023-08-12T02:47:27;8.90;;;7.47;;
7142;SDS011;3613;48.902;9.204;2023-08-12T02:49:53;8.33;;;7.10;;
7142;SDS011;3613;48.902;9.204;2023-08-12T02:52:18;7.60;;;6.77;;
7142;SDS011;3613;48.902;9.204;2023-08-12T02:54:47;8.20;;;7.10;;
7142;SDS011;3613;48.902;9.204;2023-08-12T02:57:13;11.10;;;7.77;;
7142;SDS011;3613;48.902;9.204;2023-08-12T02:59:39;7.77;;;6.77;;
7142;SDS011;3613;48.902;9.204;2023-08-12T03:02:07;14.50;;;7.27;;
7142;SDS011;3613;48.902;9.204;2023-08-12T03:04:35;8.27;;;7.17;;
7142;SDS011;3613;48.902;9.204;2023-08-12T03:07:01;9.23;;;6.97;;
7142;SDS011;3613;48.902;9.204;2023-08-12T03:09:27;8.03;;;7.23;;
7142;SDS011;3613;48.902;9.204;2023-08-12T03:11:54;8.37;;;7.43;;
7142;SDS011;3613;48.902;9.204;2023-08-12T03:14:21;9.43;;;6.67;;
7142;SDS011;3613;48.902;9.204;2023-08-12T03:16:51;9.43;;;7.07;;
7142;SDS011;3613;48.902;9.204;2023-08-12T03:19:17;7.10;;;6.30;;
7142;SDS011;3613;48.902;9.204;2023-08-12T03:21:42;7.87;;;6.50;;
7142;SDS011;3613;48.902;9.204;2023-08-12T03:24:08;11.87;;;7.07;;
7142;SDS011;3613;48.902;9.204;2023-08-12T03:26:38;8.40;;;6.53;;
7142;SDS011;3613;48.902;9.204;2023-08-12T03:29:04;7.10;;;6.40;;
7142;SDS011;3613;48.902;9.204;2023-08-12T03:31:32;7.30;;;6.60;;
7142;SDS011;3613;48.902;9.204;2023-08-12T03:33:57;7.93;;;6.60;;
7142;SDS011;3613;48.902;9.204;2023-08-12T03:36:23;8.40;;;6.57;;
7142;SDS011;3613;48.902;9.204;2023-08-12T03:38:48;8.17;;;7.10;;
7142;SDS011;3613;48.902;9.204;2023-08-12T03:41:16;8.87;;;6.80;;
7142;SDS011;3613;48.902;9.204;2023-08-12T03:43:42;7.17;;;6.40;;
7142;SDS011;3613;48.902;9.204;2023-08-12T03:46:08;7.87;;;6.30;;
7142;SDS011;3613;48.902;9.204;2023-08-12T03:48:36;8.47;;;6.60;;
7142;SDS011;3613;48.902;9.204;2023-08-12T03:51:08;7.27;;;6.20;;
7142;SDS011;3613;48.902;9.204;2023-08-12T03:53:36;12.13;;;6.43;;
7142;SDS011;3613;48.902;9.204;2023-08-12T03:56:02;6.67;;;5.97;;
7142;SDS011;3613;48.902;9.204;2023-08-12T03:58:28;8.00;;;6.57;;
7142;SDS011;3613;48.902;9.204;2023-08-12T04:00:53;7.43;;;5.77;;
7142;SDS011;3613;48.902;9.204;2023-08-12T04:03:19;8.17;;;6.40;;
7142;SDS011;3613;48.902;9.204;2023-08-12T04:05:48;7.73;;;5.90;;
7142;SDS011;3613;48.902;9.204;2023-08-12T04:08:16;6.53;;;5.83;;
7142;SDS011;3613;48.902;9.204;2023-08-12T04:10:46;7.70;;;5.87;;
7142;SDS011;3613;48.902;9.204;2023-08-12T04:13:13;8.17;;;6.17;;
7142;SDS011;3613;48.902;9.204;2023-08-12T04:15:43;8.17;;;5.97;;
7142;SDS011;3613;48.902;9.204;2023-08-12T04:18:13;8.37;;;5.97;;
7142;SDS011;3613;48.902;9.204;2023-08-12T04:20:39;7.20;;;5.90;;
7142;SDS011;3613;48.902;9.204;2023-08-12T04:23:05;6.90;;;6.20;;
7142;SDS011;3613;48.902;9.204;2023-08-12T04:25:30;9.93;;;6.40;;
7142;SDS011;3613;48.902;9.204;2023-08-12T04:27:56;6.43;;;5.27;;
7142;SDS011;3613;48.902;9.204;2023-08-12T04:30:21;9.40;;;5.90;;
7142;SDS011;3613;48.902;9.204;2023-08-12T04:32:47;7.60;;;5.60;;
7142;SDS011;3613;48.902;9.204;2023-08-12T04:35:15;6.87;;;5.67;;
7142;SDS011;3613;48.902;9.204;2023-08-12T04:37:41;6.63;;;5.93;;
7142;SDS011;3613;48.902;9.204;2023-08-12T04:40:06;8.93;;;6.40;;
7142;SDS011;3613;48.902;9.204;2023-08-12T04:42:36;8.57;;;6.13;;
7142;SDS011;3613;48.902;9.204;2023-08-12T04:45:02;6.83;;;6.03;;
7142;SDS011;3613;48.902;9.204;2023-08-12T04:47:31;6.50;;;5.90;;
7142;SDS011;3613;48.902;9.204;2023-08-12T04:49:57;9.67;;;6.10;;
7142;SDS011;3613;48.902;9.204;2023-08-12T04:52:25;7.80;;;5.90;;
7142;SDS011;3613;48.902;9.204;2023-08-12T04:54:53;6.87;;;5.93;;
7142;SDS011;3613;48.902;9.204;2023-08-12T04:57:20;7.23;;;5.67;;
7142;SDS011;3613;48.902;9.204;2023-08-12T04:59:46;7.23;;;6.00;;
7142;SDS011;3613;48.902;9.204;2023-08-12T05:02:12;6.93;;;6.03;;
7142;SDS011;3613;48.902;9.204;2023-08-12T05:04:39;6.80;;;5.80;;
7142;SDS011;3613;48.902;9.204;2023-08-12T05:07:05;7.77;;;5.57;;
7142;SDS011;3613;48.902;9.204;2023-08-12T05:09:31;6.60;;;5.53;;
7142;SDS011;3613;48.902;9.204;2023-08-12T05:11:59;6.97;;;5.90;;
7142;SDS011;3613;48.902;9.204;2023-08-12T05:14:24;6.17;;;5.57;;
7142;SDS011;3613;48.902;9.204;2023-08-12T05:16:53;8.17;;;6.10;;
7142;SDS011;3613;48.902;9.204;2023-08-12T05:19:18;7.83;;;6.37;;
7142;SDS011;3613;48.902;9.204;2023-08-12T05:21:46;8.30;;;6.30;;
7142;SDS011;3613;48.902;9.204;2023-08-12T05:24:11;6.70;;;6.00;;
7142;SDS011;3613;48.902;9.204;2023-08-12T05:26:40;9.17;;;5.80;;
7142;SDS011;3613;48.902;9.204;2023-08-12T05:29:05;6.57;;;5.87;;
7142;SDS011;3613;48.902;9.204;2023-08-12T05:31:31;9.00;;;6.53;;
7142;SDS011;3613;48.902;9.204;2023-08-12T05:33:59;8.23;;;5.87;;
7142;SDS011;3613;48.902;9.204;2023-08-12T05:36:25;6.93;;;6.10;;
7142;SDS011;3613;48.902;9.204;2023-08-12T05:38:51;6.93;;;6.27;;
7142;SDS011;3613;48.902;9.204;2023-08-12T05:41:19;6.73;;;5.80;;
7142;SDS011;3613;48.902;9.204;2023-08-12T05:43:45;6.93;;;6.23;;
7142;SDS011;3613;48.902;9.204;2023-08-12T05:46:16;7.00;;;6.30;;
7142;SDS011;3613;48.902;9.204;2023-08-12T05:48:49;6.93;;;6.23;;
7142;SDS011;3613;48.902;9.204;2023-08-12T05:51:14;6.90;;;6.07;;
7142;SDS011;3613;48.902;9.204;2023-08-12T05:53:43;9.47;;;6.20;;
7142;SDS011;3613;48.902;9.204;2023-08-12T05:56:09;8.23;;;6.20;;
7142;SDS011;3613;48.902;9.204;2023-08-12T05:58:34;8.73;;;6.93;;
7142;SDS011;3613;48.902;9.204;2023-08-12T06:01:00;8.63;;;6.80;;
7142;SDS011;3613;48.902;9.204;2023-08-12T06:03:28;7.57;;;6.77;;
7142;SDS011;3613;48.902;9.204;2023-08-12T06:05:55;8.63;;;6.50;;
7142;SDS011;3613;48.902;9.204;2023-08-12T06:08:21;7.90;;;6.20;;
7142;SDS011;3613;48.902;9.204;2023-08-12T06:10:46;8.43;;;6.50;;
7142;SDS011;3613;48.902;9.204;2023-08-12T06:13:14;7.07;;;6.30;;
7142;SDS011;3613;48.902;9.204;2023-08-12T06:15:45;8.77;;;6.23;;
7142;SDS011;3613;48.902;9.204;2023-08-12T06:18:11;7.67;;;6.63;;
7142;SDS011;3613;48.902;9.204;2023-08-12T06:20:36;7.40;;;5.97;;
7142;SDS011;3613;48.902;9.204;2023-08-12T06:23:04;7.63;;;6.87;;
7142;SDS011;3613;48.902;9.204;2023-08-12T06:25:30;8.30;;;7.20;;
7142;SDS011;3613;48.902;9.204;2023-08-12T06:27:58;12.57;;;7.03;;
7142;SDS011;3613;48.902;9.204;2023-08-12T06:30:23;9.10;;;7.57;;
7142;SDS011;3613;48.902;9.204;2023-08-12T06:32:49;10.10;;;7.03;;
7142;SDS011;3613;48.902;9.204;2023-08-12T06:35:16;12.23;;;7.60;;
7142;SDS011;3613;48.902;9.204;2023-08-12T06:37:42;7.90;;;7.10;;
7142;SDS011;3613;48.902;9.204;2023-08-12T06:40:12;9.77;;;7.43;;
7142;SDS011;3613;48.902;9.204;2023-08-12T06:42:40;10.57;;;7.67;;
7142;SDS011;3613;48.902;9.204;2023-08-12T06:45:06;8.43;;;7.30;;
7142;SDS011;3613;48.902;9.204;2023-08-12T06:47:34;10.30;;;7.00;;
7142;SDS011;3613;48.902;9.204;2023-08-12T06:50:02;8.57;;;7.60;;
7142;SDS011;3613;48.902;9.204;2023-08-12T06:52:30;13.33;;;7.40;;
7142;SDS011;3613;48.902;9.204;2023-08-12T06:55:03;8.40;;;6.93;;
7142;SDS011;3613;48.902;9.204;2023-08-12T06:57:28;8.03;;;6.97;;
7142;SDS011;3613;48.902;9.204;2023-08-12T06:59:59;9.50;;;7.13;;
7142;SDS011;3613;48.902;9.204;2023-08-12T07:02:30;9.57;;;7.30;;
7142;SDS011;3613;48.902;9.204;2023-08-12T07:04:55;8.20;;;6.83;;
7142;SDS011;3613;48.902;9.204;2023-08-12T07:07:23;6.87;;;6.10;;
7142;SDS011;3613;48.902;9.204;2023-08-12T07:09:49;8.83;;;6.50;;
7142;SDS011;3613;48.902;9.204;2023-08-12T07:12:17;10.23;;;6.53;;
7142;SDS011;3613;48.902;9.204;2023-08-12T07:14:42;10.10;;;6.80;;
7142;SDS011;3613;48.902;9.204;2023-08-12T07:17:08;8.60;;;6.03;;
7142;SDS011;3613;48.902;9.204;2023-08-12T07:19:34;9.87;;;5.57;;
7142;SDS011;3613;48.902;9.204;2023-08-12T07:22:05;6.77;;;5.47;;
7142;SDS011;3613;48.902;9.204;2023-08-12T07:24:30;6.70;;;5.73;;
7142;SDS011;3613;48.902;9.204;2023-08-12T07:26:56;5.87;;;5.33;;
7142;SDS011;3613;48.902;9.204;2023-08-12T07:29:21;6.90;;;5.47;;
7142;SDS011;3613;48.902;9.204;2023-08-12T07:31:47;6.72;;;4.82;;
7142;SDS011;3613;48.902;9.204;2023-08-12T07:34:17;6.18;;;5.57;;
7142;SDS011;3613;48.902;9.204;2023-08-12T07:36:45;5.30;;;4.85;;
7142;SDS011;3613;48.902;9.204;2023-08-12T07:39:15;7.28;;;4.85;;
7142;SDS011;3613;48.902;9.204;2023-08-12T07:41:46;5.43;;;4.80;;
7142;SDS011;3613;48.902;9.204;2023-08-12T07:44:12;6.68;;;4.65;;
7142;SDS011;3613;48.902;9.204;2023-08-12T07:46:40;6.38;;;5.05;;
7142;SDS011;3613;48.902;9.204;2023-08-12T07:49:07;5.50;;;4.90;;
7142;SDS011;3613;48.902;9.204;2023-08-12T07:51:33;6.15;;;4.82;;
7142;SDS011;3613;48.902;9.204;2023-08-12T07:53:58;6.43;;;5.25;;
7142;SDS011;3613;48.902;9.204;2023-08-12T07:56:24;6.20;;;5.60;;
7142;SDS011;3613;48.902;9.204;2023-08-12T07:58:51;5.55;;;4.90;;
7142;SDS011;3613;48.902;9.204;2023-08-12T08:01:20;5.28;;;4.68;;
7142;SDS011;3613;48.902;9.204;2023-08-12T08:03:47;5.35;;;4.85;;
7142;SDS011;3613;48.902;9.204;2023-08-12T08:06:13;7.18;;;5.68;;
7142;SDS011;3613;48.902;9.204;2023-08-12T08:08:39;5.10;;;4.50;;
7142;SDS011;3613;48.902;9.204;2023-08-12T08:11:04;6.32;;;4.60;;
7142;SDS011;3613;48.902;9.204;2023-08-12T08:13:40;7.18;;;5.10;;
7142;SDS011;3613;48.902;9.204;2023-08-12T08:16:07;6.38;;;4.60;;
7142;SDS011;3613;48.902;9.204;2023-08-12T08:18:33;5.47;;;4.78;;
7142;SDS011;3613;48.902;9.204;2023-08-12T08:20:59;5.03;;;4.53;;
7142;SDS011;3613;48.902;9.204;2023-08-12T08:23:27;5.30;;;4.80;;
7142;SDS011;3613;48.902;9.204;2023-08-12T08:25:57;5.20;;;4.80;;
7142;SDS011;3613;48.902;9.204;2023-08-12T08:28:22;5.45;;;4.95;;
7142;SDS011;3613;48.902;9.204;2023-08-12T08:30:48;5.80;;;4.90;;
7142;SDS011;3613;48.902;9.204;2023-08-12T08:33:16;7.90;;;4.57;;
7142;SDS011;3613;48.902;9.204;2023-08-12T08:35:41;5.05;;;4.55;;
7142;SDS011;3613;48.902;9.204;2023-08-12T08:38:09;5.68;;;5.07;;
7142;SDS011;3613;48.902;9.204;2023-08-12T08:40:35;6.10;;;5.05;;
7142;SDS011;3613;48.902;9.204;2023-08-12T08:43:04;7.80;;;4.75;;
7142;SDS011;3613;48.902;9.204;2023-08-12T08:45:32;5.85;;;4.70;;
7142;SDS011;3613;48.902;9.204;2023-08-12T08:47:59;5.13;;;4.25;;
7142;SDS011;3613;48.902;9.204;2023-08-12T08:50:29;4.78;;;4.38;;
7142;SDS011;3613;48.902;9.204;2023-08-12T08:52:56;5.07;;;4.30;;
7142;SDS011;3613;48.902;9.204;2023-08-12T08:55:24;4.90;;;4.20;;
7142;SDS011;3613;48.902;9.204;2023-08-12T08:57:52;5.07;;;4.57;;
7142;SDS011;3613;48.902;9.204;2023-08-12T09:00:19;4.32;;;3.92;;
7142;SDS011;3613;48.902;9.204;2023-08-12T09:02:48;5.90;;;4.80;;
7142;SDS011;3613;48.902;9.204;2023-08-12T09:05:15;4.45;;;4.05;;
7142;SDS011;3613;48.902;9.204;2023-08-12T09:07:45;5.28;;;4.28;;
7142;SDS011;3613;48.902;9.204;2023-08-12T09:10:12;6.20;;;4.60;;
7142;SDS011;3613;48.902;9.204;2023-08-12T09:12:40;5.35;;;4.85;;
7142;SDS011;3613;48.902;9.204;2023-08-12T09:15:09;6.55;;;5.40;;
7142;SDS011;3613;48.902;9.204;2023-08-12T09:17:38;5.50;;;5.00;;
7142;SDS011;3613;48.902;9.204;2023-08-12T09:20:04;5.07;;;4.57;;
7142;SDS011;3613;48.902;9.204;2023-08-12T09:22:36;5.85;;;4.97;;
7142;SDS011;3613;48.902;9.204;2023-08-12T09:25:10;6.22;;;5.30;;
7142;SDS011;3613;48.902;9.204;2023-08-12T09:27:36;5.25;;;4.75;;
7142;SDS011;3613;48.902;9.204;2023-08-12T09:30:03;5.80;;;4.57;;
7142;SDS011;3613;48.902;9.204;2023-08-12T09:32:29;5.70;;;4.80;;
7142;SDS011;3613;48.902;9.204;2023-08-12T09:34:55;6.15;;;5.10;;
7142;SDS011;3613;48.902;9.204;2023-08-12T09:37:26;5.45;;;4.82;;
7142;SDS011;3613;48.902;9.204;2023-08-12T09:39:53;5.80;;;5.05;;
7142;SDS011;3613;48.902;9.204;2023-08-12T09:42:18;5.53;;;5.03;;
7142;SDS011;3613;48.902;9.204;2023-08-12T09:44:51;5.20;;;4.80;;
7142;SDS011;3613;48.902;9.204;2023-08-12T09:47:20;5.93;;;5.15;;
7142;SDS011;3613;48.902;9.204;2023-08-12T09:49:49;6.20;;;4.95;;
7142;SDS011;3613;48.902;9.204;2023-08-12T09:52:15;5.47;;;4.88;;
7142;SDS011;3613;48.902;9.204;2023-08-12T09:54:45;5.03;;;4.50;;
7142;SDS011;3613;48.902;9.204;2023-08-12T09:57:17;5.35;;;4.75;;
7142;SDS011;3613;48.902;9.204;2023-08-12T09:59:43;5.32;;;4.93;;
7142;SDS011;3613;48.902;9.204;2023-08-12T10:02:14;5.47;;;4.97;;
7142;SDS011;3613;48.902;9.204;2023-08-12T10:04:44;5.15;;;4.63;;
7142;SDS011;3613;48.902;9.204;2023-08-12T10:07:10;5.05;;;4.30;;
7142;SDS011;3613;48.902;9.204;2023-08-12T10:09:39;5.82;;;4.60;;
7142;SDS011;3613;48.902;9.204;2023-08-12T10:12:08;4.85;;;4.25;;
7142;SDS011;3613;48.902;9.204;2023-08-12T10:14:39;5.88;;;4.63;;
7142;SDS011;3613;48.902;9.204;2023-08-12T10:17:07;5.22;;;4.72;;
7142;SDS011;3613;48.902;9.204;2023-08-12T10:19:43;4.97;;;4.47;;
7142;SDS011;3613;48.902;9.204;2023-08-12T10:22:09;4.68;;;4.28;;
7142;SDS011;3613;48.902;9.204;2023-08-12T10:24:39;4.95;;;4.40;;
7142;SDS011;3613;48.902;9.204;2023-08-12T10:27:07;4.40;;;3.80;;
7142;SDS011;3613;48.902;9.204;2023-08-12T10:29:38;5.22;;;4.45;;
7142;SDS011;3613;48.902;9.204;2023-08-12T10:32:04;4.47;;;3.92;;
7142;SDS011;3613;48.902;9.204;2023-08-12T10:34:30;6.45;;;4.50;;
7142;SDS011;3613;48.902;9.204;2023-08-12T10:36:56;5.47;;;4.88;;
7142;SDS011;3613;48.902;9.204;2023-08-12T10:39:26;5.88;;;4.97;;
7142;SDS011;3613;48.902;9.204;2023-08-12T10:41:56;6.35;;;5.22;;
7142;SDS011;3613;48.902;9.204;2023-08-12T10:44:38;7.03;;;4.80;;
7142;SDS011;3613;48.902;9.204;2023-08-12T10:47:10;4.97;;;4.47;;
7142;SDS011;3613;48.902;9.204;2023-08-12T10:49:38;5.68;;;4.82;;
7142;SDS011;3613;48.902;9.204;2023-08-12T10:52:28;5.15;;;4.65;;
7142;SDS011;3613;48.902;9.204;2023-08-12T10:58:01;5.82;;;4.60;;
7142;SDS011;3613;48.902;9.204;2023-08-12T11:00:57;5.43;;;4.28;;
7142;SDS011;3613;48.902;9.204;2023-08-12T11:03:23;5.57;;;4.43;;
7142;SDS011;3613;48.902;9.204;2023-08-12T11:05:49;5.80;;;4.57;;
7142;SDS011;3613;48.902;9.204;2023-08-12T11:08:18;4.15;;;3.75;;
7142;SDS011;3613;48.902;9.204;2023-08-12T11:10:49;4.15;;;3.75;;
7142;SDS011;3613;48.902;9.204;2023-08-12T11:13:21;5.88;;;4.00;;
7142;SDS011;3613;48.902;9.204;2023-08-12T11:15:47;5.88;;;3.92;;
7142;SDS011;3613;48.902;9.204;2023-08-12T11:18:16;5.95;;;4.00;;
7142;SDS011;3613;48.902;9.204;2023-08-12T11:20:47;4.40;;;4.00;;
7142;SDS011;3613;48.902;9.204;2023-08-12T11:23:14;4.25;;;3.85;;
7142;SDS011;3613;48.902;9.204;2023-08-12T11:25:40;5.45;;;4.00;;
7142;SDS011;3613;48.902;9.204;2023-08-12T11:28:08;5.22;;;3.67;;
7142;SDS011;3613;48.902;9.204;2023-08-12T11:30:36;5.88;;;4.13;;
7142;SDS011;3613;48.902;9.204;2023-08-12T11:33:15;5.70;;;3.65;;
7142;SDS011;3613;48.902;9.204;2023-08-12T11:35:46;4.00;;;3.08;;
7142;SDS011;3613;48.902;9.204;2023-08-12T11:38:16;4.72;;;2.95;;
7142;SDS011;3613;48.902;9.204;2023-08-12T11:40:45;6.57;;;3.58;;
7142;SDS011;3613;48.902;9.204;2023-08-12T11:43:11;5.10;;;3.78;;
7142;SDS011;3613;48.902;9.204;2023-08-12T11:45:36;4.97;;;3.28;;
7142;SDS011;3613;48.902;9.204;2023-08-12T11:48:06;7.53;;;3.88;;
7142;SDS011;3613;48.902;9.204;2023-08-12T11:50:32;5.65;;;3.80;;
7142;SDS011;3613;48.902;9.204;2023-08-12T11:53:03;4.43;;;3.78;;
7142;SDS011;3613;48.902;9.204;2023-08-12T11:55:29;4.45;;;4.05;;
7142;SDS011;3613;48.902;9.204;2023-08-12T11:57:55;3.95;;;2.65;;
7142;SDS011;3613;48.902;9.204;2023-08-12T12:00:23;6.18;;;3.50;;
7142;SDS011;3613;48.902;9.204;2023-08-12T12:05:38;9.70;;;3.70;;
7142;SDS011;3613;48.902;9.204;2023-08-12T12:08:05;6.47;;;3.40;;
7142;SDS011;3613;48.902;9.204;2023-08-12T12:10:34;3.67;;;2.40;;
7142;SDS011;3613;48.902;9.204;2023-08-12T12:13:00;3.27;;;2.03;;
7142;SDS011;3613;48.902;9.204;2023-08-12T12:15:27;5.13;;;2.10;;
7142;SDS011;3613;48.902;9.204;2023-08-12T12:17:56;5.03;;;3.10;;
7142;SDS011;3613;48.902;9.204;2023-08-12T12:20:24;3.80;;;2.87;;
7142;SDS011;3613;48.902;9.204;2023-08-12T12:22:54;2.57;;;2.23;;
7142;SDS011;3613;48.902;9.204;2023-08-12T12:25:25;4.50;;;3.00;;
7142;SDS011;3613;48.902;9.204;2023-08-12T12:27:53;4.50;;;3.43;;
7142;SDS011;3613;48.902;9.204;2023-08-12T12:30:19;6.40;;;3.90;;
7142;SDS011;3613;48.902;9.204;2023-08-12T12:32:45;8.60;;;4.90;;
7142;SDS011;3613;48.902;9.204;2023-08-12T12:35:13;18.40;;;5.93;;
7142;SDS011;3613;48.902;9.204;2023-08-12T12:37:42;25.03;;;6.80;;
7142;SDS011;3613;48.902;9.204;2023-08-12T12:40:10;45.43;;;9.30;;
7142;SDS011;3613;48.902;9.204;2023-08-12T12:42:39;17.70;;;7.50;;
7142;SDS011;3613;48.902;9.204;2023-08-12T12:45:07;16.27;;;7.93;;
7142;SDS011;3613;48.902;9.204;2023-08-12T12:47:36;13.17;;;7.63;;
7142;SDS011;3613;48.902;9.204;2023-08-12T12:50:03;19.37;;;8.90;;
7142;SDS011;3613;48.902;9.204;2023-08-12T12:52:35;9.73;;;5.80;;
7142;SDS011;3613;48.902;9.204;2023-08-12T12:55:01;8.37;;;6.53;;
7142;SDS011;3613;48.902;9.204;2023-08-12T12:57:29;9.20;;;7.83;;
7142;SDS011;3613;48.902;9.204;2023-08-12T12:59:54;8.63;;;6.70;;
7142;SDS011;3613;48.902;9.204;2023-08-12T13:02:20;12.40;;;8.63;;
7142;SDS011;3613;48.902;9.204;2023-08-12T13:04:48;9.10;;;6.97;;
7142;SDS011;3613;48.902;9.204;2023-08-12T13:07:18;7.13;;;5.53;;
7142;SDS011;3613;48.902;9.204;2023-08-12T13:09:44;7.33;;;4.60;;
7142;SDS011;3613;48.902;9.204;2023-08-12T13:12:10;6.70;;;4.97;;
7142;SDS011;3613;48.902;9.204;2023-08-12T13:14:38;6.67;;;4.70;;
7142;SDS011;3613;48.902;9.204;2023-08-12T13:17:03;5.80;;;4.10;;
7142;SDS011;3613;48.902;9.204;2023-08-12T13:19:32;4.93;;;4.07;;
7142;SDS011;3613;48.902;9.204;2023-08-12T13:21:58;6.80;;;4.70;;
7142;SDS011;3613;48.902;9.204;2023-08-12T13:24:26;6.37;;;4.40;;
7142;SDS011;3613;48.902;9.204;2023-08-12T13:26:52;6.87;;;4.67;;
7142;SDS011;3613;48.902;9.204;2023-08-12T13:29:20;6.80;;;5.27;;
7142;SDS011;3613;48.902;9.204;2023-08-12T13:31:46;6.00;;;4.60;;
7142;SDS011;3613;48.902;9.204;2023-08-12T13:34:12;8.30;;;5.07;;
7142;SDS011;3613;48.902;9.204;2023-08-12T13:36:41;8.27;;;4.87;;
7142;SDS011;3613;48.902;9.204;2023-08-12T13:39:07;6.47;;;4.40;;
7142;SDS011;3613;48.902;9.204;2023-08-12T13:41:33;6.17;;;4.57;;
7142;SDS011;3613;48.902;9.204;2023-08-12T13:44:02;7.50;;;5.13;;
7142;SDS011;3613;48.902;9.204;2023-08-12T13:46:28;6.30;;;4.37;;
7142;SDS011;3613;48.902;9.204;2023-08-12T13:48:54;5.30;;;4.13;;
7142;SDS011;3613;48.902;9.204;2023-08-12T13:51:22;6.57;;;5.00;;
7142;SDS011;3613;48.902;9.204;2023-08-12T13:53:50;7.73;;;4.73;;
7142;SDS011;3613;48.902;9.204;2023-08-12T13:56:18;6.50;;;3.97;;
7142;SDS011;3613;48.902;9.204;2023-08-12T13:58:45;6.73;;;3.83;;
7142;SDS011;3613;48.902;9.204;2023-08-12T14:01:11;5.27;;;3.93;;
7142;SDS011;3613;48.902;9.204;2023-08-12T14:03:38;5.13;;;3.87;;
7142;SDS011;3613;48.902;9.204;2023-08-12T14:06:04;3.57;;;3.27;;
7142;SDS011;3613;48.902;9.204;2023-08-12T14:08:32;4.37;;;3.70;;
7142;SDS011;3613;48.902;9.204;2023-08-12T14:10:58;4.73;;;3.57;;
7142;SDS011;3613;48.902;9.204;2023-08-12T14:13:45;5.90;;;3.73;;
7142;SDS011;3613;48.902;9.204;2023-08-12T14:16:14;4.57;;;3.53;;
7142;SDS011;3613;48.902;9.204;2023-08-12T14:18:39;5.43;;;3.73;;
7142;SDS011;3613;48.902;9.204;2023-08-12T14:21:07;4.70;;;3.57;;
7142;SDS011;3613;48.902;9.204;2023-08-12T14:23:36;3.60;;;3.27;;
7142;SDS011;3613;48.902;9.204;2023-08-12T14:26:01;4.27;;;3.40;;
7142;SDS011;3613;48.902;9.204;2023-08-12T14:28:29;4.50;;;3.63;;
7142;SDS011;3613;48.902;9.204;2023-08-12T14:30:55;4.33;;;3.30;;
7142;SDS011;3613;48.902;9.204;2023-08-12T14:33:20;6.37;;;4.03;;
7142;SDS011;3613;48.902;9.204;2023-08-12T14:35:50;3.77;;;3.20;;
7142;SDS011;3613;48.902;9.204;2023-08-12T14:38:19;3.87;;;3.27;;
7142;SDS011;3613;48.902;9.204;2023-08-12T14:40:47;3.80;;;3.50;;
7142;SDS011;3613;48.902;9.204;2023-08-12T14:43:21;4.43;;;3.60;;
7142;SDS011;3613;48.902;9.204;2023-08-12T14:45:47;5.77;;;3.40;;
7142;SDS011;3613;48.902;9.204;2023-08-12T14:48:15;4.43;;;3.50;;
7142;SDS011;3613;48.902;9.204;2023-08-12T14:50:45;4.13;;;3.70;;
7142;SDS011;3613;48.902;9.204;2023-08-12T14:53:11;4.40;;;3.40;;
7142;SDS011;3613;48.902;9.204;2023-08-12T14:55:37;3.93;;;3.40;;
7142;SDS011;3613;48.902;9.204;2023-08-12T14:58:05;4.43;;;3.53;;
7142;SDS011;3613;48.902;9.204;2023-08-12T15:00:40;4.27;;;3.63;;
7142;SDS011;3613;48.902;9.204;2023-08-12T15:03:09;6.63;;;3.67;;
7142;SDS011;3613;48.902;9.204;2023-08-12T15:05:36;4.63;;;3.70;;
7142;SDS011;3613;48.902;9.204;2023-08-12T15:08:04;4.40;;;3.33;;
7142;SDS011;3613;48.902;9.204;2023-08-12T15:10:30;4.87;;;4.17;;
7142;SDS011;3613;48.902;9.204;2023-08-12T15:12:56;4.13;;;3.73;;
7142;SDS011;3613;48.902;9.204;2023-08-12T15:15:23;7.60;;;4.03;;
7142;SDS011;3613;48.902;9.204;2023-08-12T15:17:52;5.93;;;4.13;;
7142;SDS011;3613;48.902;9.204;2023-08-12T15:20:19;4.67;;;3.77;;
7142;SDS011;3613;48.902;9.204;2023-08-12T15:22:44;4.70;;;4.17;;
7142;SDS011;3613;48.902;9.204;2023-08-12T15:25:10;6.27;;;5.03;;
7142;SDS011;3613;48.902;9.204;2023-08-12T15:27:38;4.43;;;4.03;;
7142;SDS011;3613;48.902;9.204;2023-08-12T15:30:09;5.30;;;3.90;;